Time;durP1;ratioP1;P1;durP2;ratioP2;P2;SDS_P1;SDS_P2;PMS_P1;PMS_P2;Temp;Humidity;BMP_temperature;BMP_pressure;BME280_temperature;BME280_humidity;BME280_pressure;Samples;Min_cycle;Max_cycle;Signal;HPM_P1;HPM_P2
2022/08/29 00:02:09;;;;;;;10.90;3.90;;;;;;;17.87;100.00;99730.27;105066;1271;73369;-69
2022/08/29 00:04:57;;;;;;;10.00;3.60;;;;;;;17.84;100.00;99729.64;104814;1271;60313;-68
2022/08/29 00:07:46;;;;;;;13.50;4.30;;;;;;;17.80;100.00;99730.10;104959;1271;61998;-67
2022/08/29 00:10:38;;;;;;;10.90;4.40;;;;;;;17.75;100.00;99726.80;105157;1271;74831;-68
2022/08/29 00:13:26;;;;;;;12.70;4.20;;;;;;;17.71;100.00;99729.23;105068;1271;68134;-68
2022/08/29 00:16:14;;;;;;;11.80;4.30;;;;;;;17.66;100.00;99727.52;105081;1271;73506;-69
2022/08/29 00:19:03;;;;;;;13.00;4.60;;;;;;;17.64;100.00;99728.85;104884;1271;61230;-69
2022/08/29 00:21:50;;;;;;;11.50;4.30;;;;;;;17.60;100.00;99720.89;105202;1271;60521;-69
2022/08/29 00:24:41;;;;;;;10.10;4.20;;;;;;;17.58;100.00;99717.07;105270;1271;72887;-71
2022/08/29 00:27:31;;;;;;;11.40;4.40;;;;;;;17.55;100.00;99715.02;105145;1271;67981;-69
2022/08/29 00:30:20;;;;;;;12.60;5.60;;;;;;;17.53;100.00;99707.63;105185;1271;73405;-67
2022/08/29 00:33:08;;;;;;;12.40;4.20;;;;;;;17.51;100.00;99701.74;105259;1271;59681;-67
2022/08/29 00:35:57;;;;;;;10.00;5.00;;;;;;;17.51;100.00;99705.81;105016;1271;60992;-69
2022/08/29 00:38:45;;;;;;;10.30;4.10;;;;;;;17.47;100.00;99699.41;105146;1271;73636;-69
2022/08/29 00:41:34;;;;;;;11.30;4.00;;;;;;;17.45;100.00;99696.96;105012;1271;69303;-68
2022/08/29 00:44:22;;;;;;;11.10;4.10;;;;;;;17.43;100.00;99695.36;105011;1271;72287;-70
2022/08/29 00:47:11;;;;;;;9.40;3.90;;;;;;;17.42;100.00;99689.37;105031;1271;59647;-68
2022/08/29 00:50:01;;;;;;;12.00;4.10;;;;;;;17.41;100.00;99685.38;105048;1271;60989;-69
2022/08/29 00:52:54;;;;;;;11.30;4.50;;;;;;;17.39;100.00;99686.83;104918;1271;73744;-70
2022/08/29 00:55:44;;;;;;;12.70;4.00;;;;;;;17.35;100.00;99684.39;105048;1271;67711;-68
2022/08/29 00:58:58;;;;;;;12.80;4.60;;;;;;;17.33;100.00;99677.64;105080;1271;73369;-72
2022/08/29 01:01:46;;;;;;;10.10;3.80;;;;;;;17.31;100.00;99676.77;105078;1271;59646;-69
2022/08/29 01:04:34;;;;;;;9.00;3.90;;;;;;;17.29;100.00;99667.53;105325;1271;61826;-69
2022/08/29 01:07:22;;;;;;;11.40;3.60;;;;;;;17.27;100.00;99669.41;105242;1271;73666;-68
2022/08/29 01:12:14;;;;;;;11.30;3.30;;;;;;;17.25;100.00;99661.90;104939;1271;67710;-69
2022/08/29 01:13:31;;;;;;;10.80;3.50;;;;;;;17.22;100.00;99655.11;105205;1271;74440;-69
2022/08/29 01:16:20;;;;;;;10.70;3.60;;;;;;;17.21;100.00;99652.16;104978;1271;61405;-69
2022/08/29 01:19:42;;;;;;;12.20;3.90;;;;;;;17.17;100.00;99654.55;104953;1271;59653;-69
2022/08/29 01:22:57;;;;;;;15.10;4.00;;;;;;;17.12;100.00;99651.75;105074;1271;74874;-69
2022/08/29 01:25:50;;;;;;;10.70;4.10;;;;;;;17.10;100.00;99653.50;105184;1274;69659;-70
2022/08/29 01:28:48;;;;;;;11.70;3.80;;;;;;;17.10;100.00;99653.36;105122;1271;73462;-68
2022/08/29 01:31:44;;;;;;;12.70;3.70;;;;;;;17.08;100.00;99652.33;104987;1271;59762;-69
2022/08/29 01:34:45;;;;;;;10.90;3.70;;;;;;;17.06;100.00;99650.55;105063;1271;59926;-70
2022/08/29 01:37:37;;;;;;;12.20;3.60;;;;;;;17.05;100.00;99653.91;105055;1271;73010;-69
2022/08/29 01:40:29;;;;;;;10.30;4.00;;;;;;;17.03;100.00;99654.63;104991;1271;68902;-68
2022/08/29 01:43:17;;;;;;;11.30;3.40;;;;;;;17.03;100.00;99658.77;105217;1271;72676;-72
2022/08/29 01:46:06;;;;;;;10.80;4.10;;;;;;;17.01;100.00;99659.19;105256;1271;59832;-69
2022/08/29 01:48:55;;;;;;;11.20;3.90;;;;;;;16.99;100.00;99657.22;104996;1271;60702;-70
2022/08/29 01:51:44;;;;;;;9.90;4.10;;;;;;;17.00;100.00;99655.16;105207;1271;73901;-70
2022/08/29 01:54:33;;;;;;;9.80;3.40;;;;;;;17.00;100.00;99653.15;105026;1271;66957;-69
2022/08/29 01:57:21;;;;;;;10.20;3.50;;;;;;;16.99;100.00;99652.99;105127;1271;72284;-70
2022/08/29 02:00:10;;;;;;;12.80;3.90;;;;;;;16.96;100.00;99650.20;104934;1271;59763;-70
2022/08/29 02:03:02;;;;;;;12.60;3.80;;;;;;;16.95;100.00;99650.13;104002;1271;1838584;-69
2022/08/29 02:05:50;;;;;;;14.50;3.70;;;;;;;16.95;100.00;99644.79;104955;1271;74463;-70
2022/08/29 02:08:41;;;;;;;12.70;3.50;;;;;;;16.92;100.00;99646.75;105051;1271;68603;-69
2022/08/29 02:11:29;;;;;;;11.30;4.40;;;;;;;16.91;100.00;99651.33;105067;1271;74740;-69
2022/08/29 02:14:18;;;;;;;11.30;3.80;;;;;;;16.90;100.00;99653.73;104985;1271;59697;-69
2022/08/29 02:17:07;;;;;;;15.50;4.20;;;;;;;16.89;100.00;99653.56;105116;1271;59586;-71
2022/08/29 02:19:55;;;;;;;9.20;3.40;;;;;;;16.88;100.00;99648.27;105086;1271;72525;-69
2022/08/29 02:22:43;;;;;;;11.00;3.40;;;;;;;16.86;100.00;99646.16;105187;1271;69627;-69
2022/08/29 02:25:45;;;;;;;12.50;3.60;;;;;;;16.82;100.00;99645.29;105225;1271;73475;-70
2022/08/29 02:28:35;;;;;;;14.10;3.80;;;;;;;16.79;100.00;99643.95;104901;1271;59809;-68
2022/08/29 02:31:24;;;;;;;12.20;3.80;;;;;;;16.78;100.00;99643.72;104832;1271;61392;-70
2022/08/29 02:34:12;;;;;;;12.60;3.90;;;;;;;16.77;100.00;99643.85;104812;1271;72287;-72
2022/08/29 02:37:00;;;;;;;12.10;3.70;;;;;;;16.76;100.00;99647.39;104938;1271;69625;-71
2022/08/29 02:39:48;;;;;;;11.10;3.60;;;;;;;16.75;100.00;99646.60;104820;1271;72238;-71
2022/08/29 02:42:37;;;;;;;10.50;3.40;;;;;;;16.74;100.00;99653.15;105113;1271;59795;-70
2022/08/29 02:45:25;;;;;;;11.10;3.80;;;;;;;16.72;100.00;99652.31;105008;1271;59559;-68
2022/08/29 02:48:15;;;;;;;11.50;3.80;;;;;;;16.71;100.00;99654.19;104771;1271;74269;-68
2022/08/29 02:51:03;;;;;;;13.20;3.90;;;;;;;16.70;100.00;99653.35;104943;1272;68612;-69
2022/08/29 02:53:52;;;;;;;14.30;4.00;;;;;;;16.69;100.00;99657.04;105235;1271;73407;-69
2022/08/29 02:56:40;;;;;;;11.00;3.30;;;;;;;16.68;100.00;99652.86;105097;1271;61146;-70
2022/08/29 02:59:29;;;;;;;12.20;4.30;;;;;;;16.67;100.00;99656.52;104809;1271;61075;-68
2022/08/29 03:02:17;;;;;;;11.80;3.70;;;;;;;16.67;100.00;99656.36;104828;1271;73933;-69
2022/08/29 03:05:06;;;;;;;11.50;3.90;;;;;;;16.66;100.00;99653.16;104849;1271;68662;-68
2022/08/29 03:07:56;;;;;;;13.80;3.80;;;;;;;16.64;100.00;99652.95;104888;1271;73225;-68
2022/08/29 03:10:44;;;;;;;13.80;3.90;;;;;;;16.63;100.00;99653.43;104794;1271;59666;-68
2022/08/29 03:13:33;;;;;;;12.20;3.60;;;;;;;16.64;100.00;99654.27;105055;1271;60546;-69
2022/08/29 03:16:21;;;;;;;10.50;3.70;;;;;;;16.64;100.00;99653.04;104870;1271;73628;-67
2022/08/29 03:19:09;;;;;;;12.60;3.70;;;;;;;16.66;100.00;99652.45;105019;1271;66989;-68
2022/08/29 03:21:59;;;;;;;10.60;3.70;;;;;;;16.66;100.00;99654.91;105306;1271;71628;-68
2022/08/29 03:24:47;;;;;;;12.80;3.90;;;;;;;16.67;100.00;99656.96;104885;1271;60356;-68
2022/08/29 03:27:35;;;;;;;13.70;4.10;;;;;;;16.66;100.00;99655.23;105037;1271;60888;-68
2022/08/29 03:30:23;;;;;;;11.00;3.80;;;;;;;16.66;100.00;99660.65;105069;1271;74726;-69
2022/08/29 03:33:11;;;;;;;12.20;3.60;;;;;;;16.67;100.00;99666.80;105066;1271;68071;-68
2022/08/29 03:35:59;;;;;;;12.00;3.70;;;;;;;16.66;100.00;99665.30;105088;1271;73400;-69
2022/08/29 03:38:48;;;;;;;14.20;4.10;;;;;;;16.66;100.00;99661.75;105002;1271;61280;-69
2022/08/29 03:41:37;;;;;;;13.00;4.10;;;;;;;16.65;100.00;99665.79;105052;1271;62036;-67
2022/08/29 03:44:26;;;;;;;10.90;3.70;;;;;;;16.65;100.00;99669.18;104829;1271;73671;-66
2022/08/29 03:47:15;;;;;;;12.60;4.10;;;;;;;16.65;100.00;99667.36;105053;1271;67826;-68
2022/08/29 03:50:04;;;;;;;14.10;3.90;;;;;;;16.65;100.00;99670.02;104950;1271;72381;-68
2022/08/29 03:52:52;;;;;;;10.80;3.90;;;;;;;16.64;100.00;99669.79;105090;1271;59733;-69
2022/08/29 03:55:40;;;;;;;11.90;4.50;;;;;;;16.61;100.00;99666.15;104930;1271;59637;-69
2022/08/29 03:58:29;;;;;;;11.60;3.80;;;;;;;16.61;100.00;99671.36;105013;1271;73835;-67
2022/08/29 04:01:18;;;;;;;13.70;4.00;;;;;;;16.60;100.00;99669.24;105158;1271;69147;-71
2022/08/29 04:04:06;;;;;;;8.90;3.40;;;;;;;16.58;100.00;99676.91;105090;1271;72892;-70
2022/08/29 04:06:54;;;;;;;10.90;4.10;;;;;;;16.58;100.00;99678.02;104939;1271;61136;-68
2022/08/29 04:09:42;;;;;;;9.50;4.20;;;;;;;16.58;100.00;99677.98;104966;1271;60534;-69
2022/08/29 04:12:30;;;;;;;12.60;4.20;;;;;;;16.58;100.00;99675.53;104843;1271;74145;-71
2022/08/29 04:15:19;;;;;;;9.80;3.60;;;;;;;16.58;100.00;99677.34;104958;1271;68699;-71
2022/08/29 04:18:09;;;;;;;11.60;4.10;;;;;;;16.59;100.00;99677.22;104963;1271;72083;-72
2022/08/29 04:21:01;;;;;;;11.20;4.70;;;;;;;16.60;100.00;99679.42;105006;1271;60103;-66
2022/08/29 04:23:49;;;;;;;11.20;4.10;;;;;;;16.61;100.00;99675.77;104957;1271;62220;-70
2022/08/29 04:26:39;;;;;;;11.60;4.70;;;;;;;16.60;100.00;99677.25;104847;1271;72942;-69
2022/08/29 04:29:27;;;;;;;16.50;4.90;;;;;;;16.60;100.00;99676.68;104869;1271;67623;-68
2022/08/29 04:32:16;;;;;;;12.80;4.10;;;;;;;16.61;100.00;99676.06;104847;1271;73329;-67
2022/08/29 04:35:06;;;;;;;12.20;4.10;;;;;;;16.62;100.00;99676.46;104888;1271;60197;-69
2022/08/29 04:37:54;;;;;;;12.20;4.40;;;;;;;16.65;100.00;99678.99;104609;1274;60590;-68
2022/08/29 04:40:43;;;;;;;11.70;4.60;;;;;;;16.67;100.00;99678.83;105446;1271;72865;-67
2022/08/29 04:43:32;;;;;;;14.60;5.40;;;;;;;16.69;100.00;99682.01;108356;1271;66521;-69
2022/08/29 04:46:20;;;;;;;10.00;3.60;;;;;;;16.72;100.00;99681.67;104870;1271;73378;-68
2022/08/29 04:49:11;;;;;;;13.00;5.00;;;;;;;16.73;100.00;99678.72;105122;1271;60060;-68
2022/08/29 04:52:01;;;;;;;15.10;5.30;;;;;;;16.76;100.00;99678.98;105610;1271;59646;-68
2022/08/29 04:54:50;;;;;;;11.50;4.90;;;;;;;16.79;100.00;99679.68;104942;1271;73811;-68
2022/08/29 04:57:39;;;;;;;12.50;5.50;;;;;;;16.80;100.00;99679.75;104897;1271;68607;-68
2022/08/29 05:00:28;;;;;;;11.00;5.30;;;;;;;16.81;100.00;99683.75;105130;1271;72951;-69
2022/08/29 05:03:18;;;;;;;10.10;4.70;;;;;;;16.82;100.00;99683.65;105720;1271;59735;-69
2022/08/29 05:06:10;;;;;;;13.70;5.40;;;;;;;16.83;100.00;99687.27;104904;1271;59714;-69
2022/08/29 05:08:58;;;;;;;12.60;4.90;;;;;;;16.84;100.00;99688.08;105084;1271;73673;-68
2022/08/29 05:11:47;;;;;;;10.50;4.30;;;;;;;16.85;100.00;99685.92;104888;1271;68675;-70
2022/08/29 05:14:36;;;;;;;11.70;4.60;;;;;;;16.90;100.00;99690.19;104891;1271;72154;-69
2022/08/29 05:17:25;;;;;;;11.20;4.60;;;;;;;16.94;100.00;99694.75;105069;1271;61349;-69
2022/08/29 05:20:14;;;;;;;12.70;5.10;;;;;;;16.98;100.00;99695.52;104815;1271;60413;-68
2022/08/29 05:23:02;;;;;;;12.60;4.60;;;;;;;17.06;100.00;99698.03;105067;1271;74178;-69
2022/08/29 05:26:00;;;;;;;13.70;4.70;;;;;;;17.12;100.00;99702.43;104857;1271;68388;-69
2022/08/29 05:28:49;;;;;;;13.60;4.50;;;;;;;17.17;100.00;99702.54;104996;1271;73185;-70
2022/08/29 05:31:40;;;;;;;11.20;4.20;;;;;;;17.28;100.00;99707.63;104814;1271;59758;-68
2022/08/29 05:34:33;;;;;;;13.70;4.10;;;;;;;17.37;100.00;99711.64;105852;1271;61665;-70
2022/08/29 05:37:22;;;;;;;15.50;4.60;;;;;;;17.38;99.98;99721.02;105230;1271;73610;-70
2022/08/29 05:40:10;;;;;;;11.80;4.70;;;;;;;17.44;99.58;99716.66;104904;1271;69479;-68
2022/08/29 05:42:58;;;;;;;12.70;4.00;;;;;;;17.50;98.95;99716.79;105095;1271;73248;-69
2022/08/29 05:45:46;;;;;;;13.40;4.50;;;;;;;17.54;98.64;99720.91;104740;1271;59696;-67
2022/08/29 05:48:37;;;;;;;11.30;4.00;;;;;;;17.60;98.77;99720.35;104876;1271;61646;-69
2022/08/29 05:51:25;;;;;;;11.30;4.00;;;;;;;17.68;98.13;99721.80;105117;1271;74876;-69
2022/08/29 05:54:13;;;;;;;10.30;4.10;;;;;;;17.80;97.55;99719.20;104912;1271;67511;-69
2022/08/29 05:57:02;;;;;;;11.40;4.40;;;;;;;18.00;96.68;99720.20;104928;1271;73420;-67
2022/08/29 05:59:52;;;;;;;11.00;4.10;;;;;;;18.23;95.52;99727.39;104794;1271;61327;-75
2022/08/29 06:02:40;;;;;;;10.80;3.70;;;;;;;18.57;93.64;99726.19;108738;1270;61994;-74
2022/08/29 06:05:28;;;;;;;10.80;3.60;;;;;;;18.84;92.05;99727.41;106259;1271;74719;-72
2022/08/29 06:08:20;;;;;;;9.90;3.20;;;;;;;19.11;90.78;99724.93;105304;1271;67267;-72
2022/08/29 06:11:16;;;;;;;10.80;3.70;;;;;;;19.43;88.70;99720.36;105305;1271;73548;-70
2022/08/29 06:14:04;;;;;;;10.90;3.20;;;;;;;19.73;87.32;99719.19;105192;1271;59736;-72
2022/08/29 06:16:53;;;;;;;11.40;3.20;;;;;;;20.05;85.49;99721.16;105348;1270;60641;-72
2022/08/29 06:19:41;;;;;;;10.70;3.30;;;;;;;20.49;83.22;99722.09;105090;1271;73699;-73
2022/08/29 06:22:29;;;;;;;10.70;2.90;;;;;;;21.45;78.70;99720.77;105208;1271;69597;-74
2022/08/29 06:25:17;;;;;;;9.40;3.30;;;;;;;23.04;74.82;99720.02;105097;1271;73290;-74
2022/08/29 06:28:31;;;;;;;8.20;2.70;;;;;;;24.89;66.36;99715.13;105152;1271;59745;-74
2022/08/29 06:31:27;;;;;;;6.60;2.40;;;;;;;26.40;59.49;99713.45;105090;1271;59721;-74
2022/08/29 06:34:16;;;;;;;7.00;1.90;;;;;;;27.66;54.71;99713.20;105150;1271;74816;-74
2022/08/29 06:37:04;;;;;;;9.50;2.10;;;;;;;28.76;50.43;99711.77;105093;1271;67070;-76
2022/08/29 06:39:54;;;;;;;8.70;2.20;;;;;;;29.78;47.57;99713.85;105417;1271;72969;-74
2022/08/29 06:42:41;;;;;;;7.60;2.00;;;;;;;30.59;43.74;99715.70;105855;1271;59812;-74
2022/08/29 06:45:30;;;;;;;6.60;1.70;;;;;;;30.88;43.45;99711.61;105214;1271;62039;-74
2022/08/29 06:48:19;;;;;;;11.00;1.90;;;;;;;31.10;41.54;99711.86;105096;1271;73920;-74
2022/08/29 06:51:08;;;;;;;6.90;1.80;;;;;;;31.67;41.43;99715.95;105201;1274;69080;-74
2022/08/29 06:54:08;;;;;;;7.90;2.00;;;;;;;32.11;39.18;99709.26;104975;1274;73633;-74
2022/08/29 06:56:59;;;;;;;7.00;1.60;;;;;;;32.55;38.22;99707.98;105063;1273;59813;-74
2022/08/29 06:59:47;;;;;;;6.50;1.80;;;;;;;32.94;37.35;99707.29;104926;1273;59694;-75
2022/08/29 07:02:35;;;;;;;6.60;1.50;;;;;;;33.19;36.50;99706.00;104969;1274;74684;-75
2022/08/29 07:05:26;;;;;;;7.50;1.60;;;;;;;33.39;36.03;99707.79;105033;1274;68150;-73
2022/08/29 07:08:16;;;;;;;7.50;1.50;;;;;;;33.80;35.39;99710.31;105231;1274;73761;-75
2022/08/29 07:11:04;;;;;;;5.60;1.10;;;;;;;34.22;34.17;99707.73;104965;1274;59901;-75
2022/08/29 07:13:56;;;;;;;6.10;1.40;;;;;;;33.69;33.97;99711.81;105077;1273;62103;-75
2022/08/29 07:16:43;;;;;;;5.90;1.20;;;;;;;33.23;35.36;99708.20;105199;1273;73084;-76
2022/08/29 07:19:31;;;;;;;6.40;1.40;;;;;;;33.48;34.63;99711.90;104982;1273;67183;-74
2022/08/29 07:22:19;;;;;;;8.40;1.80;;;;;;;33.91;34.20;99712.80;105029;1272;74369;-74
2022/08/29 07:25:09;;;;;;;5.60;1.30;;;;;;;33.88;33.64;99714.64;105050;1273;59888;-75
2022/08/29 07:27:57;;;;;;;7.80;1.30;;;;;;;34.00;33.03;99714.92;105105;1274;60628;-75
2022/08/29 07:30:45;;;;;;;7.80;1.50;;;;;;;34.34;33.21;99714.64;105021;1273;75553;-75
2022/08/29 07:33:33;;;;;;;6.50;1.30;;;;;;;34.61;32.48;99721.30;105186;1274;67279;-73
2022/08/29 07:36:22;;;;;;;6.60;1.20;;;;;;;35.07;31.69;99717.02;104917;1274;73400;-75
2022/08/29 07:39:15;;;;;;;5.90;1.20;;;;;;;35.60;31.45;99719.46;104967;1274;59782;-73
2022/08/29 07:42:05;;;;;;;6.10;1.20;;;;;;;36.08;30.28;99713.72;105035;1272;60938;-74
2022/08/29 07:44:53;;;;;;;6.10;1.20;;;;;;;36.32;29.59;99712.45;104925;1274;73630;-73
2022/08/29 07:47:44;;;;;;;6.30;1.40;;;;;;;36.48;29.18;99710.84;104979;1274;68034;-73
2022/08/29 07:50:33;;;;;;;6.00;1.20;;;;;;;36.42;29.63;99709.48;104878;1271;73813;-74
2022/08/29 07:53:20;;;;;;;6.30;1.30;;;;;;;36.87;28.29;99705.71;105315;1271;59682;-73
2022/08/29 07:56:15;;;;;;;5.50;0.90;;;;;;;36.90;27.82;99702.80;105425;1271;60498;-73
2022/08/29 07:59:05;;;;;;;5.20;0.80;;;;;;;37.01;27.29;99703.50;105081;1271;75224;-73
2022/08/29 08:01:53;;;;;;;7.50;1.10;;;;;;;36.81;27.63;99708.59;104941;1271;66818;-73
2022/08/29 08:04:42;;;;;;;6.60;1.00;;;;;;;36.45;28.56;99708.59;105076;1271;74379;-73
2022/08/29 08:07:31;;;;;;;6.90;1.00;;;;;;;35.27;29.42;99704.70;105013;1270;59647;-74
2022/08/29 08:10:19;;;;;;;6.20;1.20;;;;;;;34.72;30.56;99701.32;105060;1271;61048;-74
2022/08/29 08:13:07;;;;;;;6.70;1.20;;;;;;;34.48;30.82;99699.06;105182;1271;74792;-73
2022/08/29 08:15:55;;;;;;;5.80;1.20;;;;;;;34.44;31.26;99700.87;105378;1271;68575;-74
2022/08/29 08:18:44;;;;;;;5.70;1.10;;;;;;;34.16;31.47;99702.52;105039;1270;74662;-74
2022/08/29 08:21:32;;;;;;;5.50;1.20;;;;;;;34.30;31.05;99705.39;105413;1271;59653;-74
2022/08/29 08:24:21;;;;;;;5.80;1.20;;;;;;;34.44;30.61;99706.06;105288;1271;60801;-73
2022/08/29 08:27:09;;;;;;;6.10;1.00;;;;;;;34.63;30.17;99702.16;105112;1271;71961;-71
2022/08/29 08:29:58;;;;;;;5.20;1.00;;;;;;;35.24;29.56;99701.19;105457;1271;67307;-73
2022/08/29 08:32:47;;;;;;;5.90;0.90;;;;;;;35.54;28.93;99703.81;105122;1271;73395;-74
2022/08/29 08:35:41;;;;;;;5.40;1.10;;;;;;;35.88;28.25;99706.29;105171;1271;59768;-75
2022/08/29 08:38:33;;;;;;;6.30;1.20;;;;;;;36.33;28.11;99702.36;105444;1271;62138;-73
2022/08/29 08:41:27;;;;;;;4.80;0.80;;;;;;;36.53;26.54;99699.18;105242;1271;74402;-74
2022/08/29 08:44:20;;;;;;;5.40;0.90;;;;;;;36.19;26.64;99707.63;105166;1271;68621;-74
2022/08/29 08:47:14;;;;;;;4.50;0.80;;;;;;;36.30;26.70;99711.20;105177;1271;73420;-73
2022/08/29 08:50:19;;;;;;;4.70;0.90;;;;;;;36.25;26.70;99708.35;105403;1271;59687;-75
2022/08/29 08:53:33;;;;;;;5.70;1.00;;;;;;;36.20;26.94;99713.05;104887;1273;61594;-75
2022/08/29 08:56:36;;;;;;;5.80;0.90;;;;;;;36.50;26.63;99708.04;104990;1271;73126;-74
2022/08/29 08:59:30;;;;;;;4.80;0.80;;;;;;;36.66;26.08;99705.02;104931;1271;69910;-72
2022/08/29 09:02:54;;;;;;;4.90;0.80;;;;;;;36.62;26.43;99703.20;104974;1271;73307;-75
2022/08/29 09:05:57;;;;;;;5.30;1.00;;;;;;;36.84;25.74;99702.91;105070;1271;59804;-74
2022/08/29 09:09:32;;;;;;;5.10;0.80;;;;;;;36.78;25.56;99703.47;105442;1271;61994;-74
2022/08/29 09:12:44;;;;;;;5.20;0.90;;;;;;;36.80;25.55;99694.03;105464;1271;73284;-72
2022/08/29 09:15:47;;;;;;;6.10;1.00;;;;;;;37.11;24.83;99693.98;105105;1271;68063;-73
2022/08/29 09:18:45;;;;;;;4.80;0.80;;;;;;;37.52;24.47;99699.29;104870;1273;73502;-76
2022/08/29 09:21:52;;;;;;;5.90;0.90;;;;;;;37.82;24.39;99702.57;105549;1271;59666;-74
2022/08/29 09:25:00;;;;;;;4.70;0.70;;;;;;;37.99;23.56;99696.48;105089;1271;60571;-76
2022/08/29 09:27:51;;;;;;;5.10;1.00;;;;;;;38.03;23.97;99698.40;105072;1271;73219;-76
2022/08/29 09:30:43;;;;;;;4.70;0.80;;;;;;;37.94;23.88;99701.69;105549;1271;69130;-74
2022/08/29 09:33:43;;;;;;;5.10;0.90;;;;;;;37.54;24.49;99701.49;105452;1271;74537;-73
2022/08/29 09:36:51;;;;;;;5.30;0.90;;;;;;;36.66;25.56;99702.58;105131;1271;59668;-74
2022/08/29 09:39:52;;;;;;;5.50;1.00;;;;;;;36.25;25.96;99703.73;104969;1271;60954;-74
2022/08/29 09:42:46;;;;;;;4.80;1.00;;;;;;;36.73;26.18;99695.25;105389;1271;72286;-73
2022/08/29 09:45:34;;;;;;;4.80;0.90;;;;;;;36.90;25.37;99697.37;105100;1271;66860;-73
2022/08/29 09:48:24;;;;;;;5.50;0.90;;;;;;;36.72;25.44;99697.71;105258;1271;72982;-72
2022/08/29 09:51:27;;;;;;;5.60;1.10;;;;;;;36.46;25.99;99704.65;105254;1271;59647;-74
2022/08/29 09:54:27;;;;;;;6.50;1.20;;;;;;;35.65;26.86;99699.02;105189;1271;59606;-74
2022/08/29 09:57:23;;;;;;;4.10;0.80;;;;;;;35.08;28.01;99705.98;105470;1270;74787;-73
2022/08/29 10:00:22;;;;;;;5.10;1.20;;;;;;;34.99;27.51;99702.92;105144;1271;69564;-73
2022/08/29 10:03:23;;;;;;;6.60;0.90;;;;;;;35.65;25.89;99706.39;105047;1271;72862;-73
2022/08/29 10:06:24;;;;;;;4.60;0.90;;;;;;;36.16;25.32;99707.73;105117;1271;59659;-73
2022/08/29 10:09:27;;;;;;;5.00;1.10;;;;;;;36.19;24.63;99713.80;105141;1271;59600;-74
2022/08/29 10:12:21;;;;;;;5.50;1.20;;;;;;;36.32;25.41;99711.84;105078;1271;73596;-73
2022/08/29 10:15:16;;;;;;;4.50;1.00;;;;;;;36.51;25.49;99715.05;104961;1271;69932;-74
2022/08/29 10:18:59;;;;;;;5.00;1.00;;;;;;;36.28;25.99;99716.44;105574;1271;72859;-74
2022/08/29 10:22:16;;;;;;;5.50;1.00;;;;;;;35.55;27.27;99712.88;105301;1271;59758;-73
2022/08/29 10:25:19;;;;;;;5.60;1.00;;;;;;;35.31;27.83;99716.28;105551;1271;61256;-75
2022/08/29 10:28:35;;;;;;;5.20;1.00;;;;;;;35.37;27.45;99712.37;105546;1271;73616;-74
2022/08/29 10:31:58;;;;;;;4.80;1.00;;;;;;;35.38;27.08;99710.30;105257;1271;68619;-75
2022/08/29 10:35:18;;;;;;;5.00;1.10;;;;;;;35.17;27.14;99710.94;105116;1273;73182;-73
2022/08/29 10:38:32;;;;;;;4.50;1.00;;;;;;;35.38;27.27;99708.86;105107;1271;59742;-73
2022/08/29 10:42:06;;;;;;;4.80;1.00;;;;;;;35.74;26.77;99701.31;105727;1271;59648;-75
2022/08/29 10:45:24;;;;;;;5.80;1.10;;;;;;;35.35;26.98;99711.98;108483;1270;74695;-73
2022/08/29 10:48:33;;;;;;;6.30;1.10;;;;;;;35.32;27.52;99711.11;105390;1271;69147;-72
2022/08/29 10:51:58;;;;;;;5.90;1.10;;;;;;;35.41;27.80;99717.23;105051;1271;73783;-71
2022/08/29 10:55:31;;;;;;;6.30;2.10;;;;;;;33.67;29.67;99719.56;105150;1271;60079;-71
2022/08/29 10:58:38;;;;;;;6.00;1.20;;;;;;;33.06;31.16;99719.89;105551;1271;61023;-72
2022/08/29 11:01:42;;;;;;;5.80;1.10;;;;;;;33.42;31.12;99718.92;105324;1271;73066;-72
2022/08/29 11:05:01;;;;;;;5.20;1.10;;;;;;;32.80;31.78;99718.40;105210;1271;66518;-69
2022/08/29 11:08:11;;;;;;;4.80;1.00;;;;;;;31.24;34.02;99726.10;105448;1271;74429;-69
2022/08/29 11:11:03;;;;;;;6.10;1.10;;;;;;;29.78;36.88;99724.73;105572;1271;59634;-70
2022/08/29 11:14:10;;;;;;;6.00;1.30;;;;;;;28.83;38.96;99724.64;105379;1271;60902;-71
2022/08/29 11:17:01;;;;;;;6.50;1.60;;;;;;;27.99;41.13;99720.89;105014;1271;72098;-70
2022/08/29 11:20:02;;;;;;;6.10;1.40;;;;;;;27.46;42.16;99729.48;105093;1272;66263;-71
2022/08/29 11:23:29;;;;;;;5.80;1.50;;;;;;;26.98;44.03;99728.55;105048;1271;72843;-70
2022/08/29 11:26:19;;;;;;;6.90;1.50;;;;;;;26.93;44.56;99723.66;104937;1271;60811;-69
2022/08/29 11:29:44;;;;;;;7.60;1.60;;;;;;;27.13;45.08;99723.85;104911;1271;62059;-70
2022/08/29 11:32:50;;;;;;;6.30;1.50;;;;;;;27.36;44.33;99719.55;104994;1271;73221;-71
2022/08/29 11:36:10;;;;;;;7.80;1.90;;;;;;;27.44;43.91;99720.92;104930;1271;68542;-71
2022/08/29 11:39:25;;;;;;;6.40;1.60;;;;;;;28.21;43.07;99713.96;105461;1271;74301;-70
2022/08/29 11:42:15;;;;;;;6.50;1.70;;;;;;;28.11;43.15;99717.05;105414;1270;59646;-71
2022/08/29 11:45:35;;;;;;;5.40;1.40;;;;;;;27.59;44.00;99717.27;105141;1270;59519;-73
2022/08/29 11:48:46;;;;;;;7.10;1.60;;;;;;;27.23;44.92;99717.25;104993;1271;74812;-70
2022/08/29 11:51:41;;;;;;;6.80;1.40;;;;;;;27.46;44.80;99719.99;104993;1271;67943;-71
2022/08/29 11:54:29;;;;;;;6.60;1.40;;;;;;;27.74;44.18;99712.40;104978;1271;72869;-71
2022/08/29 11:57:16;;;;;;;5.90;1.30;;;;;;;27.75;42.48;99719.58;105132;1271;59753;-71
2022/08/29 12:00:33;;;;;;;6.30;1.70;;;;;;;27.88;41.70;99722.41;105137;1271;62457;-71
2022/08/29 12:03:32;;;;;;;5.10;1.20;;;;;;;28.22;41.39;99717.11;105459;1273;73192;-70
2022/08/29 12:06:54;;;;;;;5.80;1.60;;;;;;;28.19;41.09;99715.73;105223;1271;67877;-71
2022/08/29 12:09:47;;;;;;;5.00;1.20;;;;;;;27.87;42.19;99717.69;105391;1271;73194;-72
2022/08/29 12:12:46;;;;;;;5.50;1.30;;;;;;;27.28;43.15;99731.11;105387;1271;59698;-70
2022/08/29 12:15:34;;;;;;;5.60;1.30;;;;;;;26.53;45.32;99736.91;104921;1271;59535;-69
2022/08/29 12:18:22;;;;;;;5.70;1.30;;;;;;;25.96;45.93;99729.23;105641;1271;74712;-69
2022/08/29 12:21:32;;;;;;;7.70;1.60;;;;;;;25.47;46.91;99729.90;105117;1271;69480;-70
2022/08/29 12:24:36;;;;;;;5.50;1.40;;;;;;;25.19;48.08;99729.01;105400;1271;72914;-71
2022/08/29 12:28:20;;;;;;;5.30;1.30;;;;;;;24.86;49.29;99743.61;105813;1271;59760;-70
2022/08/29 12:31:44;;;;;;;8.10;1.80;;;;;;;24.09;52.84;99766.58;104542;1279;59729;-69
2022/08/29 12:35:23;;;;;;;8.80;1.60;;;;;;;22.92;60.66;99788.11;104611;1279;71750;-71
2022/08/29 12:38:34;;;;;;;5.90;1.40;;;;;;;22.03;61.99;99786.19;104622;1281;69830;-71
2022/08/29 12:41:57;;;;;;;5.50;1.30;;;;;;;21.51;64.85;99786.58;104855;1279;73155;-71
2022/08/29 12:44:58;;;;;;;7.80;1.50;;;;;;;21.29;67.60;99782.33;104628;1279;59980;-72
2022/08/29 12:47:53;;;;;;;5.60;1.40;;;;;;;21.34;68.74;99788.61;104802;1279;59641;-71
2022/08/29 12:50:47;;;;;;;6.90;1.70;;;;;;;21.65;70.20;99784.06;104724;1279;73745;-72
2022/08/29 12:53:37;;;;;;;6.50;1.50;;;;;;;21.98;70.42;99784.48;104328;1279;68984;-73
2022/08/29 12:56:25;;;;;;;5.90;1.40;;;;;;;22.33;70.41;99782.95;104401;1279;72524;-73
2022/08/29 12:59:19;;;;;;;7.50;1.60;;;;;;;22.60;68.27;99776.17;104289;1281;60083;-72
2022/08/29 13:02:29;;;;;;;6.10;1.50;;;;;;;22.89;67.93;99769.24;104366;1279;62321;-73
2022/08/29 13:05:21;;;;;;;7.90;1.60;;;;;;;23.08;68.44;99767.77;104637;1272;72448;-72
2022/08/29 13:08:31;;;;;;;5.80;1.30;;;;;;;23.26;67.98;99774.92;105030;1271;68464;-74
2022/08/29 13:11:29;;;;;;;5.90;1.90;;;;;;;23.25;66.56;99775.71;106160;1271;74449;-72
2022/08/29 13:14:22;;;;;;;6.30;1.50;;;;;;;23.29;66.30;99779.80;105389;1274;59581;-72
2022/08/29 13:17:17;;;;;;;5.50;1.50;;;;;;;23.10;65.04;99778.04;105179;1271;61009;-71
2022/08/29 13:20:49;;;;;;;5.60;1.30;;;;;;;22.83;62.16;99779.76;105010;1271;74992;-72
2022/08/29 13:23:46;;;;;;;7.90;1.50;;;;;;;22.68;60.96;99778.64;105520;1271;69946;-73
2022/08/29 13:26:41;;;;;;;4.10;0.90;;;;;;;22.65;61.30;99776.85;105301;1271;73620;-72